createdAt,value
2022-12-09T00:01:17.783Z,92.50
2022-12-09T00:03:45.133Z,92.35
2022-12-09T00:06:16.531Z,92.38
2022-12-09T00:08:44.432Z,92.27
2022-12-09T00:11:11.798Z,92.62
2022-12-09T00:13:38.809Z,92.43
2022-12-09T00:16:14.041Z,92.33
2022-12-09T00:18:41.841Z,92.31
2022-12-09T00:21:20.002Z,92.47
2022-12-09T00:23:48.191Z,92.46
2022-12-09T00:26:16.390Z,92.55
2022-12-09T00:28:43.859Z,92.61
2022-12-09T00:31:14.822Z,92.59
2022-12-09T00:33:42.300Z,92.62
2022-12-09T00:36:15.702Z,92.40
2022-12-09T00:38:43.236Z,92.28
2022-12-09T00:41:11.097Z,92.10
2022-12-09T00:43:38.168Z,92.33
2022-12-09T00:46:06.034Z,92.41
2022-12-09T00:48:38.673Z,92.46
2022-12-09T00:51:07.765Z,92.46
2022-12-09T00:53:34.853Z,92.18
2022-12-09T00:56:02.202Z,92.31
2022-12-09T00:58:29.247Z,91.90
2022-12-09T01:00:56.302Z,92.28
2022-12-09T01:03:24.380Z,92.29
2022-12-09T01:05:51.667Z,92.43
2022-12-09T01:08:19.302Z,92.25
2022-12-09T01:10:46.839Z,92.24
2022-12-09T01:13:14.907Z,92.03
2022-12-09T01:15:42.455Z,92.17
2022-12-09T01:18:11.124Z,92.05
2022-12-09T01:20:38.375Z,91.99
2022-12-09T01:23:05.447Z,91.91
2022-12-09T01:25:32.833Z,91.84
2022-12-09T01:28:00.448Z,91.54
2022-12-09T01:30:27.749Z,91.79
2022-12-09T01:32:54.821Z,91.64
2022-12-09T01:35:21.848Z,91.78
2022-12-09T01:37:49.237Z,91.83
2022-12-09T01:40:17.717Z,91.71
2022-12-09T01:42:45.540Z,91.55
2022-12-09T01:45:22.224Z,91.58
2022-12-09T01:48:04.608Z,91.50
2022-12-09T01:50:33.268Z,91.83
2022-12-09T01:53:00.472Z,91.63
2022-12-09T01:55:28.419Z,91.75
2022-12-09T01:57:56.154Z,91.83
2022-12-09T02:00:23.523Z,91.50
2022-12-09T02:02:51.795Z,91.81
2022-12-09T02:05:20.319Z,91.82
2022-12-09T02:07:53.653Z,91.87
2022-12-09T02:10:21.214Z,92.23
2022-12-09T02:13:45.019Z,92.11
2022-12-09T02:16:17.243Z,91.96
2022-12-09T02:18:52.469Z,92.15
2022-12-09T02:21:43.365Z,92.01
2022-12-09T02:24:20.797Z,92.22
2022-12-09T02:26:56.335Z,92.40
2022-12-09T02:29:44.995Z,92.30
2022-12-09T02:32:40.085Z,92.10
2022-12-09T02:35:21.887Z,92.39
2022-12-09T02:38:05.592Z,92.48
2022-12-09T02:40:54.852Z,92.59
2022-12-09T02:43:26.834Z,92.55
2022-12-09T02:45:56.729Z,92.72
2022-12-09T02:48:27.044Z,92.83
2022-12-09T02:50:54.660Z,93.29
2022-12-09T02:53:23.504Z,93.59
2022-12-09T02:55:51.949Z,93.84
2022-12-09T02:58:20.222Z,93.89
2022-12-09T03:00:47.931Z,94.19
2022-12-09T03:03:17.001Z,94.12
2022-12-09T03:05:57.654Z,94.33
2022-12-09T03:08:43.323Z,94.48
2022-12-09T03:11:10.772Z,94.51
2022-12-09T03:13:48.202Z,94.62
2022-12-09T03:16:23.813Z,94.84
2022-12-09T03:19:08.386Z,94.91
2022-12-09T03:21:40.205Z,94.91
2022-12-09T03:24:09.101Z,95.23
2022-12-09T03:26:38.354Z,95.35
2022-12-09T03:29:11.619Z,95.36
2022-12-09T03:31:39.629Z,95.54
2022-12-09T03:34:07.787Z,95.45
2022-12-09T03:36:38.509Z,95.81
2022-12-09T03:39:12.203Z,95.75
2022-12-09T03:41:45.002Z,95.89
2022-12-09T03:44:16.966Z,95.65
2022-12-09T03:46:44.475Z,95.91
2022-12-09T03:49:12.203Z,95.94
2022-12-09T03:51:52.267Z,95.90
2022-12-09T03:54:55.278Z,96.31
2022-12-09T03:57:23.188Z,96.09
2022-12-09T03:59:58.057Z,96.10
2022-12-09T04:02:25.492Z,96.23
2022-12-09T04:04:53.449Z,96.04
2022-12-09T04:07:20.799Z,96.14
2022-12-09T04:09:47.888Z,96.43
2022-12-09T04:12:15.744Z,96.22
2022-12-09T04:14:43.360Z,96.50
2022-12-09T04:17:11.221Z,96.57
2022-12-09T04:19:41.967Z,96.82
2022-12-09T04:22:09.125Z,96.92
2022-12-09T04:24:36.270Z,97.12
2022-12-09T04:27:03.632Z,97.02
2022-12-09T04:29:30.799Z,97.19
2022-12-09T04:31:58.050Z,97.20
2022-12-09T04:34:25.251Z,97.18
2022-12-09T04:36:52.338Z,97.22
2022-12-09T04:39:19.750Z,97.13
2022-12-09T04:41:46.818Z,97.33
2022-12-09T04:44:14.122Z,97.37
2022-12-09T04:46:41.347Z,97.10
2022-12-09T04:49:08.925Z,97.10
2022-12-09T04:51:39.877Z,97.01
2022-12-09T04:54:08.030Z,96.92
2022-12-09T04:56:35.072Z,97.10
2022-12-09T04:59:02.453Z,96.84
2022-12-09T05:01:31.408Z,96.94
2022-12-09T05:03:59.874Z,96.95
2022-12-09T05:06:29.452Z,97.24
2022-12-09T05:08:57.348Z,96.96
2022-12-09T05:11:25.071Z,97.25
2022-12-09T05:13:55.220Z,97.47
2022-12-09T05:16:23.163Z,97.25
2022-12-09T05:18:50.679Z,97.35
2022-12-09T05:21:19.489Z,97.20
2022-12-09T05:23:47.267Z,97.37
2022-12-09T05:26:16.742Z,97.26
2022-12-09T05:28:46.225Z,97.50
2022-12-09T05:31:17.133Z,97.43
2022-12-09T05:33:45.952Z,97.42
2022-12-09T05:36:15.061Z,97.13
2022-12-09T05:38:42.686Z,97.21
2022-12-09T05:41:10.402Z,97.12
2022-12-09T05:43:38.367Z,97.36
2022-12-09T05:46:07.022Z,96.98
2022-12-09T05:48:35.312Z,97.10
2022-12-09T05:51:12.620Z,97.09
2022-12-09T05:53:40.238Z,97.12
2022-12-09T05:56:07.604Z,96.86
2022-12-09T05:58:35.159Z,96.93
2022-12-09T06:01:07.193Z,96.74
2022-12-09T06:03:36.808Z,97.04
2022-12-09T06:06:12.912Z,97.00
2022-12-09T06:08:41.912Z,97.08
2022-12-09T06:11:17.422Z,96.91
2022-12-09T06:13:45.438Z,96.63
2022-12-09T06:16:14.708Z,96.54
2022-12-09T06:18:42.018Z,96.46
2022-12-09T06:21:11.448Z,96.18
2022-12-09T06:23:41.399Z,96.16
2022-12-09T06:26:16.617Z,96.04
2022-12-09T06:28:44.569Z,96.09
2022-12-09T06:31:11.730Z,95.80
2022-12-09T06:33:54.622Z,95.63
2022-12-09T06:36:24.157Z,95.26
2022-12-09T06:38:54.753Z,95.15
2022-12-09T06:41:23.788Z,95.18
2022-12-09T06:43:51.366Z,94.81
2022-12-09T06:46:26.113Z,94.58
2022-12-09T06:48:54.716Z,94.32
2022-12-09T06:51:24.395Z,94.23
2022-12-09T06:53:52.037Z,94.09
2022-12-09T06:56:19.692Z,94.12
2022-12-09T06:58:47.457Z,94.17
2022-12-09T07:01:22.998Z,93.78
2022-12-09T07:03:54.399Z,93.50
2022-12-09T07:06:27.818Z,93.34
2022-12-09T07:08:58.300Z,93.73
2022-12-09T07:11:25.701Z,93.54
2022-12-09T07:13:53.005Z,93.65
2022-12-09T07:16:20.236Z,93.41
2022-12-09T07:18:47.709Z,93.24
2022-12-09T07:21:19.438Z,92.85
2022-12-09T07:23:48.445Z,92.98
2022-12-09T07:26:16.974Z,93.06
2022-12-09T07:28:44.428Z,92.88
2022-12-09T07:31:25.701Z,92.59
2022-12-09T07:33:56.450Z,92.46
2022-12-09T07:36:26.500Z,92.40
2022-12-09T07:39:02.352Z,92.23
2022-12-09T07:41:29.832Z,92.30
2022-12-09T07:43:59.158Z,92.23
2022-12-09T07:46:28.093Z,92.11
2022-12-09T07:48:57.367Z,91.95
2022-12-09T07:51:25.414Z,92.33
2022-12-09T07:53:53.734Z,92.35
2022-12-09T07:56:22.400Z,92.37
2022-12-09T07:58:51.385Z,92.53
2022-12-09T08:01:21.228Z,92.42
2022-12-09T08:03:49.637Z,92.46
2022-12-09T08:06:19.292Z,92.47
2022-12-09T08:08:47.333Z,92.26
2022-12-09T08:11:18.137Z,92.32
2022-12-09T08:13:45.689Z,92.67
2022-12-09T08:16:15.100Z,92.32
2022-12-09T08:18:43.054Z,92.71
2022-12-09T08:21:21.359Z,92.72
2022-12-09T08:23:49.401Z,92.46
2022-12-09T08:26:19.962Z,92.68
2022-12-09T08:28:47.765Z,92.52
2022-12-09T08:31:25.028Z,92.51
2022-12-09T08:33:53.808Z,92.23
2022-12-09T08:36:24.035Z,92.05
2022-12-09T08:38:54.471Z,92.10
2022-12-09T08:41:35.980Z,92.01
2022-12-09T08:44:07.190Z,91.94
2022-12-09T08:46:35.764Z,91.94
2022-12-09T08:49:03.752Z,91.79
2022-12-09T08:51:31.781Z,91.35
2022-12-09T08:53:59.572Z,91.35
2022-12-09T08:56:27.081Z,91.44
2022-12-09T08:58:55.535Z,91.22
2022-12-09T09:01:25.132Z,91.05
2022-12-09T09:03:52.945Z,91.12
2022-12-09T09:06:20.440Z,91.00
2022-12-09T09:08:48.024Z,90.78
2022-12-09T09:11:19.721Z,90.41
2022-12-09T09:13:48.779Z,90.52
2022-12-09T09:16:18.751Z,90.24
2022-12-09T09:18:47.399Z,90.12
2022-12-09T09:21:17.015Z,90.19
2022-12-09T09:23:44.783Z,90.07
2022-12-09T09:26:14.482Z,90.04
2022-12-09T09:28:41.970Z,89.90
2022-12-09T09:31:12.558Z,89.96
2022-12-09T09:33:39.938Z,89.78
2022-12-09T09:36:10.604Z,90.02
2022-12-09T09:38:40.238Z,89.92
2022-12-09T09:41:20.311Z,89.36
2022-12-09T09:43:47.811Z,89.26
2022-12-09T09:46:25.013Z,88.98
2022-12-09T09:48:53.166Z,88.57
2022-12-09T09:51:21.887Z,88.48
2022-12-09T09:53:51.335Z,88.04
2022-12-09T09:56:30.665Z,88.13
2022-12-09T09:59:27.096Z,88.28
2022-12-09T10:02:03.195Z,87.89
2022-12-09T10:04:58.127Z,87.93
2022-12-09T10:07:43.722Z,87.53
2022-12-09T10:10:17.229Z,87.43
2022-12-09T10:12:50.787Z,87.32
2022-12-09T10:15:29.506Z,87.35
2022-12-09T10:18:11.963Z,87.32
2022-12-09T10:20:40.004Z,87.04
2022-12-09T10:23:12.923Z,87.39
2022-12-09T10:25:49.993Z,87.00
2022-12-09T10:28:37.237Z,87.06
2022-12-09T10:31:04.780Z,86.64
2022-12-09T10:33:39.986Z,86.54
2022-12-09T10:36:20.781Z,86.84
2022-12-09T10:38:48.725Z,86.94
2022-12-09T10:41:59.085Z,86.71
2022-12-09T10:44:27.565Z,86.86
2022-12-09T10:47:06.327Z,86.77
2022-12-09T10:52:22.990Z,86.51
2022-12-09T10:54:50.224Z,86.83
2022-12-09T10:57:17.724Z,86.68
2022-12-09T11:00:21.702Z,86.63
2022-12-09T11:02:54.743Z,86.55
2022-12-09T11:05:36.751Z,86.51
2022-12-09T11:08:04.988Z,86.56
2022-12-09T11:10:33.288Z,86.33
2022-12-09T11:13:09.003Z,86.47
2022-12-09T11:15:36.065Z,86.46
2022-12-09T11:18:04.695Z,86.12
2022-12-09T11:20:33.700Z,85.86
2022-12-09T11:23:07.323Z,86.22
2022-12-09T11:25:36.831Z,86.04
2022-12-09T11:28:16.555Z,86.27
2022-12-09T11:31:27.262Z,86.25
2022-12-09T11:33:52.121Z,86.21
2022-12-09T11:36:29.922Z,86.24
2022-12-09T11:39:28.789Z,86.29
2022-12-09T11:42:17.179Z,86.14
2022-12-09T11:44:50.494Z,86.32
2022-12-09T11:47:24.595Z,86.08
2022-12-09T11:49:56.676Z,86.26
2022-12-09T11:52:27.355Z,85.91
2022-12-09T11:55:18.768Z,86.02
2022-12-09T11:57:52.490Z,86.13
2022-12-09T12:00:23.110Z,86.15
2022-12-09T12:03:04.967Z,85.62
2022-12-09T12:05:34.827Z,86.25
2022-12-09T12:08:07.967Z,85.89
2022-12-09T12:10:39.843Z,86.06
2022-12-09T12:13:29.607Z,86.36
2022-12-09T12:16:05.595Z,86.44
2022-12-09T12:19:06.912Z,86.15
2022-12-09T12:22:11.574Z,86.18
2022-12-09T12:24:58.272Z,86.31
2022-12-09T12:27:44.990Z,86.56
2022-12-09T12:30:20.177Z,86.69
2022-12-09T12:33:40.795Z,86.84
2022-12-09T12:36:01.181Z,86.65
2022-12-09T12:39:05.330Z,86.95
2022-12-09T12:41:42.761Z,86.76
2022-12-09T12:44:41.895Z,86.84
2022-12-09T12:47:18.191Z,86.83
2022-12-09T12:50:01.399Z,86.80
2022-12-09T12:52:56.377Z,87.12
2022-12-09T12:55:54.506Z,87.15
2022-12-09T12:59:04.258Z,87.13
2022-12-09T13:01:53.650Z,86.88
2022-12-09T13:04:40.478Z,86.84
2022-12-09T13:07:41.060Z,86.90
2022-12-09T13:10:24.165Z,87.10
2022-12-09T13:13:01.714Z,87.23
2022-12-09T13:15:36.751Z,87.06
2022-12-09T13:18:29.753Z,86.96
2022-12-09T13:20:58.946Z,86.95
2022-12-09T13:23:50.403Z,86.83
2022-12-09T13:26:20.507Z,86.85
2022-12-09T13:28:55.315Z,87.01
2022-12-09T13:31:23.981Z,86.99
2022-12-09T13:34:19.351Z,87.21
2022-12-09T13:36:48.399Z,87.11
2022-12-09T13:39:40.224Z,87.34
2022-12-09T13:42:47.071Z,87.29
2022-12-09T13:45:23.919Z,87.17
2022-12-09T13:47:53.456Z,86.95
2022-12-09T13:50:36.801Z,87.47
2022-12-09T13:53:27.119Z,87.62
2022-12-09T13:56:06.390Z,87.79
2022-12-09T13:58:46.556Z,87.69
2022-12-09T14:01:13.699Z,87.87
2022-12-09T14:04:16.045Z,88.06
2022-12-09T14:06:46.396Z,88.05
2022-12-09T14:09:31.420Z,87.70
2022-12-09T14:12:00.867Z,88.01
2022-12-09T14:14:27.779Z,87.89
2022-12-09T14:16:56.766Z,87.96
2022-12-09T14:19:26.584Z,88.07
2022-12-09T14:22:19.310Z,88.19
2022-12-09T14:24:58.855Z,88.24
2022-12-09T14:27:31.045Z,88.12
2022-12-09T14:30:02.051Z,88.17
2022-12-09T14:32:53.887Z,88.58
2022-12-09T14:35:45.198Z,88.34
2022-12-09T14:38:30.193Z,88.51
2022-12-09T14:41:28.041Z,88.45
2022-12-09T14:44:03.758Z,88.56
2022-12-09T14:46:41.386Z,88.63
2022-12-09T14:49:26.259Z,88.68
2022-12-09T14:51:59.384Z,89.05
2022-12-09T14:54:36.313Z,89.21
2022-12-09T14:57:07.349Z,89.44
2022-12-09T14:59:34.737Z,89.42
2022-12-09T15:02:15.203Z,89.45
2022-12-09T15:04:49.874Z,89.57
2022-12-09T15:07:27.511Z,89.47
2022-12-09T15:09:57.189Z,89.47
2022-12-09T15:12:37.033Z,89.29
2022-12-09T15:15:10.301Z,89.41
2022-12-09T15:17:59.816Z,89.03
2022-12-09T15:20:32.093Z,89.05
2022-12-09T15:23:45.238Z,89.36
2022-12-09T15:26:39.242Z,89.52
2022-12-09T15:29:06.681Z,89.31
2022-12-09T15:31:34.792Z,89.49
2022-12-09T15:34:11.580Z,89.35
2022-12-09T15:36:42.050Z,89.29
2022-12-09T15:39:12.005Z,89.24
2022-12-09T15:42:12.075Z,89.50
2022-12-09T15:44:41.340Z,89.53
2022-12-09T15:47:15.413Z,89.74
2022-12-09T15:49:54.172Z,89.58
2022-12-09T15:52:28.049Z,89.68
2022-12-09T15:54:55.423Z,89.55
2022-12-09T15:57:22.782Z,89.45
2022-12-09T15:59:56.420Z,89.55
2022-12-09T16:02:29.323Z,89.79
2022-12-09T16:05:00.737Z,89.65
2022-12-09T16:07:28.026Z,89.24
2022-12-09T16:10:13.341Z,89.75
2022-12-09T16:12:41.514Z,89.54
2022-12-09T16:15:14.233Z,89.78
2022-12-09T16:17:56.142Z,89.78
2022-12-09T16:20:36.204Z,89.87
2022-12-09T16:23:10.100Z,89.83
2022-12-09T16:25:42.392Z,90.00
2022-12-09T16:28:28.918Z,90.41
2022-12-09T16:31:03.208Z,90.21
2022-12-09T16:33:35.258Z,90.29
2022-12-09T16:36:07.233Z,90.05
2022-12-09T16:38:36.884Z,90.24
2022-12-09T16:41:11.584Z,90.28
2022-12-09T16:43:56.762Z,90.55
2022-12-09T16:46:26.687Z,90.67
2022-12-09T16:48:53.792Z,90.90
2022-12-09T16:51:24.802Z,90.71
2022-12-09T16:53:52.871Z,90.95
2022-12-09T16:56:25.654Z,91.19
2022-12-09T16:58:53.563Z,91.32
2022-12-09T17:01:23.850Z,91.06
2022-12-09T17:03:52.810Z,91.04
2022-12-09T17:06:22.064Z,90.96
2022-12-09T17:08:49.089Z,90.75
2022-12-09T17:11:17.355Z,90.55
2022-12-09T17:13:44.641Z,90.40
2022-12-09T17:16:11.759Z,90.33
2022-12-09T17:18:39.730Z,90.08
2022-12-09T17:21:13.336Z,90.36
2022-12-09T17:23:41.956Z,90.35
2022-12-09T17:26:11.432Z,90.23
2022-12-09T17:28:41.773Z,89.99
2022-12-09T17:31:11.253Z,90.11
2022-12-09T17:33:38.543Z,89.88
2022-12-09T17:36:06.663Z,90.07
2022-12-09T17:38:36.194Z,89.96
2022-12-09T17:41:05.359Z,89.75
2022-12-09T17:43:33.872Z,89.93
2022-12-09T17:48:43.778Z,89.78
2022-12-09T17:51:15.444Z,89.58
2022-12-09T17:53:43.169Z,89.48
2022-12-09T17:56:36.182Z,89.38
2022-12-09T17:59:07.502Z,89.30
2022-12-09T18:01:36.434Z,89.24
2022-12-09T18:04:10.290Z,89.33
2022-12-09T18:06:39.821Z,89.40
2022-12-09T18:09:09.354Z,89.62
2022-12-09T18:11:36.855Z,89.60
2022-12-09T18:14:04.409Z,89.64
2022-12-09T18:16:32.546Z,89.70
2022-12-09T18:19:09.954Z,89.83
2022-12-09T18:21:37.007Z,89.54
2022-12-09T18:24:04.418Z,89.72
2022-12-09T18:26:36.658Z,89.70
2022-12-09T18:29:06.753Z,89.55
2022-12-09T18:31:36.449Z,89.47
2022-12-09T18:34:09.394Z,89.36
2022-12-09T18:36:37.949Z,89.62
2022-12-09T18:39:05.616Z,89.51
2022-12-09T18:41:33.400Z,89.73
2022-12-09T18:44:05.512Z,89.80
2022-12-09T18:46:37.852Z,89.67
2022-12-09T18:49:23.760Z,89.74
2022-12-09T18:51:52.818Z,89.48
2022-12-09T18:54:24.766Z,89.27
2022-12-09T18:56:52.259Z,89.30
2022-12-09T18:59:22.282Z,89.56
2022-12-09T19:01:49.812Z,89.58
2022-12-09T19:04:19.282Z,89.63
2022-12-09T19:06:48.166Z,89.62
2022-12-09T19:09:27.111Z,89.49
2022-12-09T19:11:55.784Z,89.82
2022-12-09T19:14:23.308Z,89.62
2022-12-09T19:16:51.378Z,89.70
2022-12-09T19:19:23.917Z,89.77
2022-12-09T19:21:53.368Z,89.83
2022-12-09T19:24:28.316Z,90.08
2022-12-09T19:26:57.914Z,90.04
2022-12-09T19:29:25.848Z,90.11
2022-12-09T19:31:54.059Z,90.25
2022-12-09T19:34:29.088Z,90.28
2022-12-09T19:37:00.297Z,90.20
2022-12-09T19:39:34.256Z,90.25
2022-12-09T19:42:02.267Z,90.31
2022-12-09T19:45:00.955Z,90.17
2022-12-09T19:47:17.051Z,90.45
2022-12-09T19:49:44.629Z,90.32
2022-12-09T19:52:12.662Z,90.17
2022-12-09T19:54:39.898Z,90.44
2022-12-09T19:57:07.199Z,90.32
2022-12-09T19:59:35.607Z,90.18
2022-12-09T20:02:02.716Z,90.13
2022-12-09T20:07:35.922Z,90.39
2022-12-09T20:10:02.851Z,90.48
2022-12-09T20:12:30.767Z,90.33
2022-12-09T20:17:41.371Z,90.44
2022-12-09T20:20:09.324Z,90.50
2022-12-09T20:22:36.515Z,90.69
2022-12-09T20:25:03.436Z,90.91
2022-12-09T20:27:30.728Z,90.96
2022-12-09T20:29:57.814Z,91.32
2022-12-09T20:32:25.037Z,91.39
2022-12-09T20:34:53.781Z,91.30
2022-12-09T20:37:28.300Z,91.62
2022-12-09T20:39:55.358Z,91.66
2022-12-09T20:42:22.400Z,92.04
2022-12-09T20:44:49.498Z,92.10
2022-12-09T20:47:16.577Z,92.25
2022-12-09T20:49:48.196Z,92.50
2022-12-09T20:52:15.187Z,92.80
2022-12-09T20:54:42.196Z,92.82
2022-12-09T20:57:10.692Z,93.29
2022-12-09T20:59:37.927Z,93.26
2022-12-09T21:02:09.490Z,93.56
2022-12-09T21:04:39.192Z,93.79
2022-12-09T21:07:06.585Z,93.81
2022-12-09T21:09:33.910Z,93.56
2022-12-09T21:12:00.870Z,93.75
2022-12-09T21:14:33.014Z,93.99
2022-12-09T21:17:00.346Z,94.27
2022-12-09T21:19:30.149Z,94.12
2022-12-09T21:21:57.211Z,94.11
2022-12-09T21:24:24.823Z,94.11
2022-12-09T21:26:56.078Z,94.06
2022-12-09T21:29:29.879Z,94.05
2022-12-09T21:31:59.405Z,93.79
2022-12-09T21:34:27.388Z,94.47
2022-12-09T21:36:55.676Z,94.61
2022-12-09T21:39:22.756Z,94.41
2022-12-09T21:41:50.210Z,94.33
2022-12-09T21:44:19.126Z,94.23
2022-12-09T21:46:46.280Z,94.47
2022-12-09T21:49:13.736Z,94.47
2022-12-09T21:51:41.165Z,94.53
2022-12-09T21:54:08.376Z,94.43
2022-12-09T21:56:39.346Z,94.37
2022-12-09T21:59:07.495Z,94.05
2022-12-09T22:01:38.058Z,94.42
2022-12-09T22:04:08.484Z,94.48
2022-12-09T22:06:35.809Z,94.32
2022-12-09T22:09:04.331Z,94.45
2022-12-09T22:11:34.772Z,94.36
2022-12-09T22:14:02.546Z,94.65
2022-12-09T22:16:32.760Z,94.67
2022-12-09T22:19:00.983Z,94.64
2022-12-09T22:21:30.004Z,94.73
2022-12-09T22:23:59.452Z,94.63
2022-12-09T22:26:27.013Z,94.83
2022-12-09T22:28:54.755Z,94.80
2022-12-09T22:31:30.583Z,94.61
2022-12-09T22:34:01.091Z,94.97
2022-12-09T22:36:29.678Z,94.83
2022-12-09T22:38:56.730Z,94.93
2022-12-09T22:41:25.846Z,94.96
2022-12-09T22:43:54.636Z,95.17
2022-12-09T22:46:30.348Z,95.42
2022-12-09T22:49:00.819Z,95.55
2022-12-09T22:51:29.582Z,95.60
2022-12-09T22:53:57.553Z,95.71
2022-12-09T22:56:25.446Z,95.74
2022-12-09T22:58:52.637Z,95.94
2022-12-09T23:01:32.971Z,95.96
2022-12-09T23:04:00.502Z,96.01
2022-12-09T23:06:28.561Z,96.22
2022-12-09T23:08:56.203Z,96.05
2022-12-09T23:11:25.675Z,96.43
2022-12-09T23:13:53.301Z,96.60
2022-12-09T23:16:24.950Z,96.93
2022-12-09T23:18:53.018Z,97.06
2022-12-09T23:21:23.871Z,97.26
2022-12-09T23:23:59.360Z,97.38
2022-12-09T23:26:28.609Z,97.47
2022-12-09T23:28:58.999Z,97.80
2022-12-09T23:31:32.372Z,98.30
2022-12-09T23:34:00.824Z,98.39
2022-12-09T23:36:31.247Z,98.86
2022-12-09T23:38:58.860Z,99.14
2022-12-09T23:41:26.116Z,99.16
2022-12-09T23:43:54.077Z,99.07
2022-12-09T23:46:23.954Z,99.41
2022-12-09T23:48:52.245Z,99.42
2022-12-09T23:51:25.193Z,99.51
2022-12-09T23:53:54.560Z,99.71
2022-12-09T23:56:23.921Z,100.00
2022-12-09T23:59:04.985Z,100.00
